sensor_id;sensor_type;location;lat;lon;timestamp;P1;durP1;ratioP1;P2;durP2;ratioP2
22737;SDS011;11536;50.860;4.286;2023-09-30T00:01:17;9.45;;;4.05;;
22737;SDS011;11536;50.860;4.286;2023-09-30T00:03:43;7.20;;;3.55;;
22737;SDS011;11536;50.860;4.286;2023-09-30T00:06:09;9.50;;;4.07;;
22737;SDS011;11536;50.860;4.286;2023-09-30T00:08:35;7.05;;;3.80;;
22737;SDS011;11536;50.860;4.286;2023-09-30T00:11:01;8.18;;;3.95;;
22737;SDS011;11536;50.860;4.286;2023-09-30T00:13:27;9.18;;;3.80;;
22737;SDS011;11536;50.860;4.286;2023-09-30T00:15:53;8.18;;;3.83;;
22737;SDS011;11536;50.860;4.286;2023-09-30T00:18:19;9.13;;;3.85;;
22737;SDS011;11536;50.860;4.286;2023-09-30T00:20:44;8.02;;;3.45;;
22737;SDS011;11536;50.860;4.286;2023-09-30T00:23:10;6.65;;;3.50;;
22737;SDS011;11536;50.860;4.286;2023-09-30T00:25:36;8.05;;;3.75;;
22737;SDS011;11536;50.860;4.286;2023-09-30T00:28:01;8.60;;;3.90;;
22737;SDS011;11536;50.860;4.286;2023-09-30T00:30:27;8.45;;;3.47;;
22737;SDS011;11536;50.860;4.286;2023-09-30T00:32:53;9.27;;;3.72;;
22737;SDS011;11536;50.860;4.286;2023-09-30T00:35:18;10.02;;;4.13;;
22737;SDS011;11536;50.860;4.286;2023-09-30T00:37:44;9.93;;;3.85;;
22737;SDS011;11536;50.860;4.286;2023-09-30T00:40:10;8.98;;;4.20;;
22737;SDS011;11536;50.860;4.286;2023-09-30T00:42:37;8.65;;;4.18;;
22737;SDS011;11536;50.860;4.286;2023-09-30T00:45:03;12.10;;;5.05;;
22737;SDS011;11536;50.860;4.286;2023-09-30T00:47:30;12.02;;;3.78;;
22737;SDS011;11536;50.860;4.286;2023-09-30T00:49:56;9.75;;;4.28;;
22737;SDS011;11536;50.860;4.286;2023-09-30T00:52:22;8.30;;;3.92;;
22737;SDS011;11536;50.860;4.286;2023-09-30T00:54:48;8.25;;;3.83;;
22737;SDS011;11536;50.860;4.286;2023-09-30T00:57:16;8.18;;;4.15;;
22737;SDS011;11536;50.860;4.286;2023-09-30T00:59:44;9.13;;;4.40;;
22737;SDS011;11536;50.860;4.286;2023-09-30T01:02:10;10.05;;;3.97;;
22737;SDS011;11536;50.860;4.286;2023-09-30T01:04:36;8.95;;;3.72;;
22737;SDS011;11536;50.860;4.286;2023-09-30T01:07:03;7.85;;;4.10;;
22737;SDS011;11536;50.860;4.286;2023-09-30T01:09:30;10.45;;;4.00;;
22737;SDS011;11536;50.860;4.286;2023-09-30T01:11:56;8.90;;;4.43;;
22737;SDS011;11536;50.860;4.286;2023-09-30T01:14:28;9.18;;;4.00;;
22737;SDS011;11536;50.860;4.286;2023-09-30T01:16:54;8.77;;;4.33;;
22737;SDS011;11536;50.860;4.286;2023-09-30T01:19:20;9.13;;;4.10;;
22737;SDS011;11536;50.860;4.286;2023-09-30T01:21:49;10.30;;;3.95;;
22737;SDS011;11536;50.860;4.286;2023-09-30T01:24:41;8.65;;;3.63;;
22737;SDS011;11536;50.860;4.286;2023-09-30T01:27:07;8.50;;;3.90;;
22737;SDS011;11536;50.860;4.286;2023-09-30T01:29:33;10.60;;;4.20;;
22737;SDS011;11536;50.860;4.286;2023-09-30T01:32:00;8.43;;;3.58;;
22737;SDS011;11536;50.860;4.286;2023-09-30T01:34:26;10.15;;;4.10;;
22737;SDS011;11536;50.860;4.286;2023-09-30T01:36:52;9.15;;;4.25;;
22737;SDS011;11536;50.860;4.286;2023-09-30T01:39:18;9.02;;;3.97;;
22737;SDS011;11536;50.860;4.286;2023-09-30T01:41:44;8.73;;;3.80;;
22737;SDS011;11536;50.860;4.286;2023-09-30T01:44:10;7.63;;;3.70;;
22737;SDS011;11536;50.860;4.286;2023-09-30T01:46:36;9.63;;;4.25;;
22737;SDS011;11536;50.860;4.286;2023-09-30T01:49:02;10.48;;;4.10;;
22737;SDS011;11536;50.860;4.286;2023-09-30T01:51:29;10.85;;;4.00;;
22737;SDS011;11536;50.860;4.286;2023-09-30T01:53:55;10.02;;;4.32;;
22737;SDS011;11536;50.860;4.286;2023-09-30T01:56:21;9.93;;;4.35;;
22737;SDS011;11536;50.860;4.286;2023-09-30T01:58:46;10.10;;;4.07;;
22737;SDS011;11536;50.860;4.286;2023-09-30T02:01:12;9.18;;;4.00;;
22737;SDS011;11536;50.860;4.286;2023-09-30T02:03:37;10.02;;;4.05;;
22737;SDS011;11536;50.860;4.286;2023-09-30T02:06:03;8.60;;;4.10;;
22737;SDS011;11536;50.860;4.286;2023-09-30T02:08:29;10.30;;;4.75;;
22737;SDS011;11536;50.860;4.286;2023-09-30T02:10:55;10.95;;;4.35;;
22737;SDS011;11536;50.860;4.286;2023-09-30T02:13:21;9.63;;;4.63;;
22737;SDS011;11536;50.860;4.286;2023-09-30T02:15:47;13.20;;;5.30;;
22737;SDS011;11536;50.860;4.286;2023-09-30T02:18:13;14.38;;;5.35;;
22737;SDS011;11536;50.860;4.286;2023-09-30T02:20:39;9.10;;;4.40;;
22737;SDS011;11536;50.860;4.286;2023-09-30T02:23:09;12.95;;;5.38;;
22737;SDS011;11536;50.860;4.286;2023-09-30T02:25:38;12.65;;;5.32;;
22737;SDS011;11536;50.860;4.286;2023-09-30T02:28:04;13.98;;;5.63;;
22737;SDS011;11536;50.860;4.286;2023-09-30T02:30:31;12.20;;;5.10;;
22737;SDS011;11536;50.860;4.286;2023-09-30T02:32:57;11.32;;;4.85;;
22737;SDS011;11536;50.860;4.286;2023-09-30T02:35:22;9.57;;;4.95;;
22737;SDS011;11536;50.860;4.286;2023-09-30T02:37:48;15.25;;;5.07;;
22737;SDS011;11536;50.860;4.286;2023-09-30T02:40:17;11.70;;;5.10;;
22737;SDS011;11536;50.860;4.286;2023-09-30T02:42:43;10.88;;;5.10;;
22737;SDS011;11536;50.860;4.286;2023-09-30T02:45:10;10.43;;;5.32;;
22737;SDS011;11536;50.860;4.286;2023-09-30T02:47:36;13.32;;;5.40;;
22737;SDS011;11536;50.860;4.286;2023-09-30T02:50:04;15.43;;;5.68;;
22737;SDS011;11536;50.860;4.286;2023-09-30T02:52:33;14.60;;;5.30;;
22737;SDS011;11536;50.860;4.286;2023-09-30T02:54:59;10.55;;;4.95;;
22737;SDS011;11536;50.860;4.286;2023-09-30T02:57:25;12.82;;;5.25;;
22737;SDS011;11536;50.860;4.286;2023-09-30T02:59:52;10.23;;;5.15;;
22737;SDS011;11536;50.860;4.286;2023-09-30T03:02:19;14.63;;;5.30;;
22737;SDS011;11536;50.860;4.286;2023-09-30T03:04:46;14.95;;;5.80;;
22737;SDS011;11536;50.860;4.286;2023-09-30T03:07:13;13.32;;;5.82;;
22737;SDS011;11536;50.860;4.286;2023-09-30T03:09:39;10.57;;;4.85;;
22737;SDS011;11536;50.860;4.286;2023-09-30T03:12:04;10.95;;;4.45;;
22737;SDS011;11536;50.860;4.286;2023-09-30T03:14:31;12.50;;;4.93;;
22737;SDS011;11536;50.860;4.286;2023-09-30T03:17:00;12.38;;;5.30;;
22737;SDS011;11536;50.860;4.286;2023-09-30T03:19:26;13.77;;;5.43;;
22737;SDS011;11536;50.860;4.286;2023-09-30T03:21:51;14.00;;;5.53;;
22737;SDS011;11536;50.860;4.286;2023-09-30T03:24:17;12.25;;;5.03;;
22737;SDS011;11536;50.860;4.286;2023-09-30T03:26:43;15.05;;;6.07;;
22737;SDS011;11536;50.860;4.286;2023-09-30T03:29:09;12.30;;;5.35;;
22737;SDS011;11536;50.860;4.286;2023-09-30T03:31:35;14.55;;;6.00;;
22737;SDS011;11536;50.860;4.286;2023-09-30T03:34:04;11.75;;;5.25;;
22737;SDS011;11536;50.860;4.286;2023-09-30T03:36:30;13.82;;;5.53;;
22737;SDS011;11536;50.860;4.286;2023-09-30T03:38:57;14.45;;;6.35;;
22737;SDS011;11536;50.860;4.286;2023-09-30T03:41:32;15.00;;;5.90;;
22737;SDS011;11536;50.860;4.286;2023-09-30T03:44:00;11.75;;;5.22;;
22737;SDS011;11536;50.860;4.286;2023-09-30T03:46:26;16.75;;;5.97;;
22737;SDS011;11536;50.860;4.286;2023-09-30T03:48:52;14.05;;;5.75;;
22737;SDS011;11536;50.860;4.286;2023-09-30T03:51:17;13.85;;;5.47;;
22737;SDS011;11536;50.860;4.286;2023-09-30T03:53:43;13.13;;;5.45;;
22737;SDS011;11536;50.860;4.286;2023-09-30T03:56:10;13.57;;;5.38;;
22737;SDS011;11536;50.860;4.286;2023-09-30T03:58:42;15.57;;;5.97;;
22737;SDS011;11536;50.860;4.286;2023-09-30T04:01:09;15.10;;;5.50;;
22737;SDS011;11536;50.860;4.286;2023-09-30T04:03:44;12.32;;;5.25;;
22737;SDS011;11536;50.860;4.286;2023-09-30T04:06:10;12.85;;;5.43;;
22737;SDS011;11536;50.860;4.286;2023-09-30T04:08:37;13.85;;;5.32;;
22737;SDS011;11536;50.860;4.286;2023-09-30T04:11:03;17.70;;;5.65;;
22737;SDS011;11536;50.860;4.286;2023-09-30T04:13:29;13.75;;;5.53;;
22737;SDS011;11536;50.860;4.286;2023-09-30T04:15:54;11.95;;;5.38;;
22737;SDS011;11536;50.860;4.286;2023-09-30T04:18:23;14.25;;;5.28;;
22737;SDS011;11536;50.860;4.286;2023-09-30T04:20:51;13.85;;;5.25;;
22737;SDS011;11536;50.860;4.286;2023-09-30T04:23:17;12.80;;;5.03;;
22737;SDS011;11536;50.860;4.286;2023-09-30T04:25:45;11.63;;;4.97;;
22737;SDS011;11536;50.860;4.286;2023-09-30T04:28:11;15.40;;;5.47;;
22737;SDS011;11536;50.860;4.286;2023-09-30T04:30:38;14.52;;;5.10;;
22737;SDS011;11536;50.860;4.286;2023-09-30T04:33:04;11.10;;;5.57;;
22737;SDS011;11536;50.860;4.286;2023-09-30T04:35:30;11.43;;;5.50;;
22737;SDS011;11536;50.860;4.286;2023-09-30T04:37:56;11.48;;;5.15;;
22737;SDS011;11536;50.860;4.286;2023-09-30T04:40:26;12.88;;;4.88;;
22737;SDS011;11536;50.860;4.286;2023-09-30T04:42:52;13.18;;;5.47;;
22737;SDS011;11536;50.860;4.286;2023-09-30T04:45:23;12.70;;;5.00;;
22737;SDS011;11536;50.860;4.286;2023-09-30T04:47:51;14.07;;;4.72;;
22737;SDS011;11536;50.860;4.286;2023-09-30T04:50:17;14.77;;;5.22;;
22737;SDS011;11536;50.860;4.286;2023-09-30T04:52:43;12.23;;;4.55;;
22737;SDS011;11536;50.860;4.286;2023-09-30T04:55:10;14.70;;;5.63;;
22737;SDS011;11536;50.860;4.286;2023-09-30T04:57:37;10.18;;;4.65;;
22737;SDS011;11536;50.860;4.286;2023-09-30T05:00:03;13.38;;;4.30;;
22737;SDS011;11536;50.860;4.286;2023-09-30T05:02:35;13.25;;;4.78;;
22737;SDS011;11536;50.860;4.286;2023-09-30T05:05:01;11.65;;;5.30;;
22737;SDS011;11536;50.860;4.286;2023-09-30T05:07:30;14.15;;;5.10;;
22737;SDS011;11536;50.860;4.286;2023-09-30T05:09:56;14.85;;;4.55;;
22737;SDS011;11536;50.860;4.286;2023-09-30T05:12:22;14.45;;;4.75;;
22737;SDS011;11536;50.860;4.286;2023-09-30T05:14:48;13.90;;;5.40;;
22737;SDS011;11536;50.860;4.286;2023-09-30T05:17:14;12.25;;;4.70;;
22737;SDS011;11536;50.860;4.286;2023-09-30T05:19:40;14.82;;;5.22;;
22737;SDS011;11536;50.860;4.286;2023-09-30T05:22:06;16.33;;;5.20;;
22737;SDS011;11536;50.860;4.286;2023-09-30T05:24:31;11.50;;;4.65;;
22737;SDS011;11536;50.860;4.286;2023-09-30T05:26:57;11.07;;;4.18;;
22737;SDS011;11536;50.860;4.286;2023-09-30T05:29:23;12.35;;;5.05;;
22737;SDS011;11536;50.860;4.286;2023-09-30T05:31:49;16.60;;;5.45;;
22737;SDS011;11536;50.860;4.286;2023-09-30T05:34:14;12.40;;;4.10;;
22737;SDS011;11536;50.860;4.286;2023-09-30T05:36:40;11.75;;;4.80;;
22737;SDS011;11536;50.860;4.286;2023-09-30T05:39:07;13.02;;;4.45;;
22737;SDS011;11536;50.860;4.286;2023-09-30T05:41:35;10.32;;;4.43;;
22737;SDS011;11536;50.860;4.286;2023-09-30T05:44:02;14.88;;;5.30;;
22737;SDS011;11536;50.860;4.286;2023-09-30T05:46:30;13.48;;;4.50;;
22737;SDS011;11536;50.860;4.286;2023-09-30T05:48:56;11.30;;;4.47;;
22737;SDS011;11536;50.860;4.286;2023-09-30T05:51:21;14.48;;;4.72;;
22737;SDS011;11536;50.860;4.286;2023-09-30T05:53:47;13.65;;;4.60;;
22737;SDS011;11536;50.860;4.286;2023-09-30T05:56:13;12.45;;;3.85;;
22737;SDS011;11536;50.860;4.286;2023-09-30T05:58:40;10.90;;;4.18;;
22737;SDS011;11536;50.860;4.286;2023-09-30T06:01:10;15.23;;;4.07;;
22737;SDS011;11536;50.860;4.286;2023-09-30T06:03:43;11.27;;;3.58;;
22737;SDS011;11536;50.860;4.286;2023-09-30T06:06:14;15.65;;;4.60;;
22737;SDS011;11536;50.860;4.286;2023-09-30T06:08:41;11.32;;;4.40;;
22737;SDS011;11536;50.860;4.286;2023-09-30T06:11:19;14.63;;;4.10;;
22737;SDS011;11536;50.860;4.286;2023-09-30T06:13:49;13.45;;;4.30;;
22737;SDS011;11536;50.860;4.286;2023-09-30T06:16:19;11.43;;;3.67;;
22737;SDS011;11536;50.860;4.286;2023-09-30T06:18:45;13.00;;;4.70;;
22737;SDS011;11536;50.860;4.286;2023-09-30T06:21:11;15.88;;;4.25;;
22737;SDS011;11536;50.860;4.286;2023-09-30T06:23:42;11.35;;;3.40;;
22737;SDS011;11536;50.860;4.286;2023-09-30T06:26:08;10.77;;;3.47;;
22737;SDS011;11536;50.860;4.286;2023-09-30T06:28:34;8.98;;;3.63;;
22737;SDS011;11536;50.860;4.286;2023-09-30T06:31:06;11.38;;;3.60;;
22737;SDS011;11536;50.860;4.286;2023-09-30T06:33:33;12.20;;;3.38;;
22737;SDS011;11536;50.860;4.286;2023-09-30T06:35:59;10.95;;;3.38;;
22737;SDS011;11536;50.860;4.286;2023-09-30T06:38:27;11.98;;;3.58;;
22737;SDS011;11536;50.860;4.286;2023-09-30T06:40:52;10.95;;;3.95;;
22737;SDS011;11536;50.860;4.286;2023-09-30T06:43:19;17.65;;;4.35;;
22737;SDS011;11536;50.860;4.286;2023-09-30T06:45:45;15.68;;;4.70;;
22737;SDS011;11536;50.860;4.286;2023-09-30T06:48:12;11.38;;;3.47;;
22737;SDS011;11536;50.860;4.286;2023-09-30T06:50:48;13.45;;;3.53;;
22737;SDS011;11536;50.860;4.286;2023-09-30T06:53:18;10.43;;;3.65;;
22737;SDS011;11536;50.860;4.286;2023-09-30T06:55:44;9.63;;;3.72;;
22737;SDS011;11536;50.860;4.286;2023-09-30T06:58:11;20.20;;;4.38;;
22737;SDS011;11536;50.860;4.286;2023-09-30T07:00:37;11.13;;;3.22;;
22737;SDS011;11536;50.860;4.286;2023-09-30T07:03:04;12.38;;;2.97;;
22737;SDS011;11536;50.860;4.286;2023-09-30T07:05:29;12.55;;;3.10;;
22737;SDS011;11536;50.860;4.286;2023-09-30T07:07:55;12.25;;;3.15;;
22737;SDS011;11536;50.860;4.286;2023-09-30T07:10:21;10.10;;;3.35;;
22737;SDS011;11536;50.860;4.286;2023-09-30T07:12:47;11.60;;;3.13;;
22737;SDS011;11536;50.860;4.286;2023-09-30T07:15:13;11.90;;;3.33;;
22737;SDS011;11536;50.860;4.286;2023-09-30T07:17:39;8.93;;;2.90;;
22737;SDS011;11536;50.860;4.286;2023-09-30T07:20:05;8.25;;;2.83;;
22737;SDS011;11536;50.860;4.286;2023-09-30T07:22:32;13.10;;;3.15;;
22737;SDS011;11536;50.860;4.286;2023-09-30T07:24:58;16.75;;;4.07;;
22737;SDS011;11536;50.860;4.286;2023-09-30T07:27:23;10.88;;;3.17;;
22737;SDS011;11536;50.860;4.286;2023-09-30T07:29:49;8.85;;;2.92;;
22737;SDS011;11536;50.860;4.286;2023-09-30T07:32:15;12.30;;;3.90;;
22737;SDS011;11536;50.860;4.286;2023-09-30T07:34:41;10.48;;;3.15;;
22737;SDS011;11536;50.860;4.286;2023-09-30T07:37:07;11.68;;;2.90;;
22737;SDS011;11536;50.860;4.286;2023-09-30T07:39:33;12.75;;;3.10;;
22737;SDS011;11536;50.860;4.286;2023-09-30T07:42:00;11.43;;;2.97;;
22737;SDS011;11536;50.860;4.286;2023-09-30T07:44:26;10.27;;;2.63;;
22737;SDS011;11536;50.860;4.286;2023-09-30T07:46:52;14.43;;;3.15;;
22737;SDS011;11536;50.860;4.286;2023-09-30T07:49:18;11.15;;;3.10;;
22737;SDS011;11536;50.860;4.286;2023-09-30T07:51:44;13.48;;;2.90;;
22737;SDS011;11536;50.860;4.286;2023-09-30T07:54:11;12.50;;;3.15;;
22737;SDS011;11536;50.860;4.286;2023-09-30T07:56:37;8.88;;;2.80;;
22737;SDS011;11536;50.860;4.286;2023-09-30T07:59:03;8.43;;;2.10;;
22737;SDS011;11536;50.860;4.286;2023-09-30T08:01:30;12.65;;;2.72;;
22737;SDS011;11536;50.860;4.286;2023-09-30T08:03:56;12.48;;;2.63;;
22737;SDS011;11536;50.860;4.286;2023-09-30T08:06:22;15.68;;;2.90;;
22737;SDS011;11536;50.860;4.286;2023-09-30T08:08:48;10.10;;;2.80;;
22737;SDS011;11536;50.860;4.286;2023-09-30T08:11:14;11.05;;;2.63;;
22737;SDS011;11536;50.860;4.286;2023-09-30T08:13:40;14.23;;;3.00;;
22737;SDS011;11536;50.860;4.286;2023-09-30T08:16:06;11.20;;;2.35;;
22737;SDS011;11536;50.860;4.286;2023-09-30T08:18:32;15.85;;;3.08;;
22737;SDS011;11536;50.860;4.286;2023-09-30T08:20:57;12.18;;;2.70;;
22737;SDS011;11536;50.860;4.286;2023-09-30T08:23:23;10.35;;;2.20;;
22737;SDS011;11536;50.860;4.286;2023-09-30T08:25:49;12.43;;;2.20;;
22737;SDS011;11536;50.860;4.286;2023-09-30T08:28:14;12.98;;;2.47;;
22737;SDS011;11536;50.860;4.286;2023-09-30T08:30:41;11.82;;;2.42;;
22737;SDS011;11536;50.860;4.286;2023-09-30T08:33:07;11.18;;;2.65;;
22737;SDS011;11536;50.860;4.286;2023-09-30T08:35:36;10.73;;;2.40;;
22737;SDS011;11536;50.860;4.286;2023-09-30T08:38:05;10.82;;;3.10;;
22737;SDS011;11536;50.860;4.286;2023-09-30T08:40:31;9.25;;;2.58;;
22737;SDS011;11536;50.860;4.286;2023-09-30T08:42:57;12.15;;;2.40;;
22737;SDS011;11536;50.860;4.286;2023-09-30T08:45:22;12.27;;;2.42;;
22737;SDS011;11536;50.860;4.286;2023-09-30T08:47:49;14.95;;;3.03;;
22737;SDS011;11536;50.860;4.286;2023-09-30T08:50:16;13.20;;;3.67;;
22737;SDS011;11536;50.860;4.286;2023-09-30T08:52:43;10.50;;;2.83;;
22737;SDS011;11536;50.860;4.286;2023-09-30T08:55:10;15.23;;;3.30;;
22737;SDS011;11536;50.860;4.286;2023-09-30T08:57:37;9.90;;;2.95;;
22737;SDS011;11536;50.860;4.286;2023-09-30T09:00:07;14.32;;;3.22;;
22737;SDS011;11536;50.860;4.286;2023-09-30T09:02:38;9.80;;;2.72;;
22737;SDS011;11536;50.860;4.286;2023-09-30T09:05:04;14.60;;;3.22;;
22737;SDS011;11536;50.860;4.286;2023-09-30T09:07:31;14.77;;;3.10;;
22737;SDS011;11536;50.860;4.286;2023-09-30T09:10:05;11.05;;;3.22;;
22737;SDS011;11536;50.860;4.286;2023-09-30T09:12:36;13.07;;;3.47;;
22737;SDS011;11536;50.860;4.286;2023-09-30T09:15:04;10.23;;;2.90;;
22737;SDS011;11536;50.860;4.286;2023-09-30T09:17:44;12.32;;;2.97;;
22737;SDS011;11536;50.860;4.286;2023-09-30T09:20:10;16.48;;;3.05;;
22737;SDS011;11536;50.860;4.286;2023-09-30T09:22:43;15.13;;;3.05;;
22737;SDS011;11536;50.860;4.286;2023-09-30T09:25:09;14.93;;;2.92;;
22737;SDS011;11536;50.860;4.286;2023-09-30T09:27:36;14.35;;;2.85;;
22737;SDS011;11536;50.860;4.286;2023-09-30T09:30:21;13.80;;;2.67;;
22737;SDS011;11536;50.860;4.286;2023-09-30T09:32:52;11.45;;;3.00;;
22737;SDS011;11536;50.860;4.286;2023-09-30T09:35:31;16.83;;;3.33;;
22737;SDS011;11536;50.860;4.286;2023-09-30T09:38:02;9.13;;;2.75;;
22737;SDS011;11536;50.860;4.286;2023-09-30T09:40:31;13.48;;;3.50;;
22737;SDS011;11536;50.860;4.286;2023-09-30T09:43:01;12.48;;;3.22;;
22737;SDS011;11536;50.860;4.286;2023-09-30T09:45:34;10.52;;;2.42;;
22737;SDS011;11536;50.860;4.286;2023-09-30T09:48:04;10.93;;;2.80;;
22737;SDS011;11536;50.860;4.286;2023-09-30T09:50:30;8.02;;;2.03;;
22737;SDS011;11536;50.860;4.286;2023-09-30T09:53:00;7.78;;;2.10;;
22737;SDS011;11536;50.860;4.286;2023-09-30T09:55:29;12.05;;;2.75;;
22737;SDS011;11536;50.860;4.286;2023-09-30T09:57:55;8.23;;;2.58;;
22737;SDS011;11536;50.860;4.286;2023-09-30T10:00:23;11.60;;;2.05;;
22737;SDS011;11536;50.860;4.286;2023-09-30T10:02:50;7.53;;;2.08;;
22737;SDS011;11536;50.860;4.286;2023-09-30T10:05:17;10.23;;;2.65;;
22737;SDS011;11536;50.860;4.286;2023-09-30T10:07:54;10.77;;;2.60;;
22737;SDS011;11536;50.860;4.286;2023-09-30T10:10:21;10.30;;;2.60;;
22737;SDS011;11536;50.860;4.286;2023-09-30T10:12:48;9.95;;;2.53;;
22737;SDS011;11536;50.860;4.286;2023-09-30T10:17:59;9.13;;;2.22;;
22737;SDS011;11536;50.860;4.286;2023-09-30T10:20:29;7.32;;;1.60;;
22737;SDS011;11536;50.860;4.286;2023-09-30T10:25:49;8.75;;;2.13;;
22737;SDS011;11536;50.860;4.286;2023-09-30T10:31:14;10.02;;;1.90;;
22737;SDS011;11536;50.860;4.286;2023-09-30T10:36:35;10.55;;;1.77;;
22737;SDS011;11536;50.860;4.286;2023-09-30T10:39:04;8.75;;;2.25;;
22737;SDS011;11536;50.860;4.286;2023-09-30T10:46:53;11.48;;;2.15;;
22737;SDS011;11536;50.860;4.286;2023-09-30T10:51:52;8.98;;;1.70;;
22737;SDS011;11536;50.860;4.286;2023-09-30T10:54:22;8.30;;;1.75;;
22737;SDS011;11536;50.860;4.286;2023-09-30T10:56:58;8.25;;;1.55;;
22737;SDS011;11536;50.860;4.286;2023-09-30T10:59:25;8.70;;;1.90;;
22737;SDS011;11536;50.860;4.286;2023-09-30T11:01:53;9.57;;;1.77;;
22737;SDS011;11536;50.860;4.286;2023-09-30T11:04:19;9.00;;;1.83;;
22737;SDS011;11536;50.860;4.286;2023-09-30T11:06:45;6.63;;;1.65;;
22737;SDS011;11536;50.860;4.286;2023-09-30T11:09:18;7.50;;;1.80;;
22737;SDS011;11536;50.860;4.286;2023-09-30T11:11:48;7.07;;;1.40;;
22737;SDS011;11536;50.860;4.286;2023-09-30T11:14:23;6.15;;;1.40;;
22737;SDS011;11536;50.860;4.286;2023-09-30T11:16:51;10.20;;;2.10;;
22737;SDS011;11536;50.860;4.286;2023-09-30T11:19:19;9.13;;;1.80;;
22737;SDS011;11536;50.860;4.286;2023-09-30T11:21:46;8.10;;;1.85;;
22737;SDS011;11536;50.860;4.286;2023-09-30T11:24:17;7.55;;;1.42;;
22737;SDS011;11536;50.860;4.286;2023-09-30T11:26:46;3.92;;;1.10;;
22737;SDS011;11536;50.860;4.286;2023-09-30T11:31:42;6.13;;;1.15;;
22737;SDS011;11536;50.860;4.286;2023-09-30T11:34:10;10.27;;;1.92;;
22737;SDS011;11536;50.860;4.286;2023-09-30T11:36:39;6.60;;;1.27;;
22737;SDS011;11536;50.860;4.286;2023-09-30T11:39:08;8.23;;;1.80;;
22737;SDS011;11536;50.860;4.286;2023-09-30T11:41:39;6.43;;;1.50;;
22737;SDS011;11536;50.860;4.286;2023-09-30T11:44:07;10.82;;;1.80;;
22737;SDS011;11536;50.860;4.286;2023-09-30T11:52:03;11.52;;;1.75;;
22737;SDS011;11536;50.860;4.286;2023-09-30T11:54:35;7.80;;;1.65;;
22737;SDS011;11536;50.860;4.286;2023-09-30T11:57:14;7.28;;;1.55;;
22737;SDS011;11536;50.860;4.286;2023-09-30T11:59:41;7.78;;;1.30;;
22737;SDS011;11536;50.860;4.286;2023-09-30T12:02:08;7.45;;;1.38;;
22737;SDS011;11536;50.860;4.286;2023-09-30T12:04:34;7.10;;;1.63;;
22737;SDS011;11536;50.860;4.286;2023-09-30T12:07:01;8.65;;;1.23;;
22737;SDS011;11536;50.860;4.286;2023-09-30T12:09:26;4.90;;;1.20;;
22737;SDS011;11536;50.860;4.286;2023-09-30T12:11:53;8.00;;;1.50;;
22737;SDS011;11536;50.860;4.286;2023-09-30T12:14:22;5.82;;;1.48;;
22737;SDS011;11536;50.860;4.286;2023-09-30T12:16:48;8.13;;;1.67;;
22737;SDS011;11536;50.860;4.286;2023-09-30T12:19:16;4.25;;;1.10;;
22737;SDS011;11536;50.860;4.286;2023-09-30T12:21:43;7.63;;;1.48;;
22737;SDS011;11536;50.860;4.286;2023-09-30T12:24:12;9.13;;;1.40;;
22737;SDS011;11536;50.860;4.286;2023-09-30T12:26:42;9.32;;;1.67;;
22737;SDS011;11536;50.860;4.286;2023-09-30T12:29:10;6.22;;;1.17;;
22737;SDS011;11536;50.860;4.286;2023-09-30T12:31:36;6.25;;;1.20;;
22737;SDS011;11536;50.860;4.286;2023-09-30T12:34:01;6.60;;;1.17;;
22737;SDS011;11536;50.860;4.286;2023-09-30T12:36:27;5.15;;;0.95;;
22737;SDS011;11536;50.860;4.286;2023-09-30T12:38:53;6.55;;;1.55;;
22737;SDS011;11536;50.860;4.286;2023-09-30T12:41:18;5.10;;;1.25;;
22737;SDS011;11536;50.860;4.286;2023-09-30T12:43:44;4.65;;;1.00;;
22737;SDS011;11536;50.860;4.286;2023-09-30T12:46:10;5.00;;;1.10;;
22737;SDS011;11536;50.860;4.286;2023-09-30T12:48:38;6.57;;;1.30;;
22737;SDS011;11536;50.860;4.286;2023-09-30T12:51:05;5.43;;;1.20;;
22737;SDS011;11536;50.860;4.286;2023-09-30T12:53:32;6.75;;;1.40;;
22737;SDS011;11536;50.860;4.286;2023-09-30T12:55:58;5.68;;;1.10;;
22737;SDS011;11536;50.860;4.286;2023-09-30T12:58:24;4.88;;;1.40;;
22737;SDS011;11536;50.860;4.286;2023-09-30T13:00:52;6.15;;;1.40;;
22737;SDS011;11536;50.860;4.286;2023-09-30T13:03:22;6.93;;;1.30;;
22737;SDS011;11536;50.860;4.286;2023-09-30T13:05:48;4.63;;;1.08;;
22737;SDS011;11536;50.860;4.286;2023-09-30T13:08:14;7.75;;;1.55;;
22737;SDS011;11536;50.860;4.286;2023-09-30T13:10:40;6.10;;;1.45;;
22737;SDS011;11536;50.860;4.286;2023-09-30T13:13:05;6.93;;;1.52;;
22737;SDS011;11536;50.860;4.286;2023-09-30T13:15:32;5.80;;;1.13;;
22737;SDS011;11536;50.860;4.286;2023-09-30T13:17:58;6.85;;;1.70;;
22737;SDS011;11536;50.860;4.286;2023-09-30T13:20:24;3.05;;;0.80;;
22737;SDS011;11536;50.860;4.286;2023-09-30T13:22:50;6.60;;;1.17;;
22737;SDS011;11536;50.860;4.286;2023-09-30T13:25:16;4.88;;;0.95;;
22737;SDS011;11536;50.860;4.286;2023-09-30T13:27:41;5.22;;;0.90;;
22737;SDS011;11536;50.860;4.286;2023-09-30T13:30:08;11.43;;;1.83;;
22737;SDS011;11536;50.860;4.286;2023-09-30T13:32:35;7.35;;;1.42;;
22737;SDS011;11536;50.860;4.286;2023-09-30T13:35:04;5.18;;;1.30;;
22737;SDS011;11536;50.860;4.286;2023-09-30T13:37:30;6.13;;;1.20;;
22737;SDS011;11536;50.860;4.286;2023-09-30T13:40:01;6.15;;;1.20;;
22737;SDS011;11536;50.860;4.286;2023-09-30T13:42:33;7.07;;;1.48;;
22737;SDS011;11536;50.860;4.286;2023-09-30T13:44:59;7.07;;;1.15;;
22737;SDS011;11536;50.860;4.286;2023-09-30T13:47:25;5.78;;;1.33;;
22737;SDS011;11536;50.860;4.286;2023-09-30T13:49:51;7.65;;;1.40;;
22737;SDS011;11536;50.860;4.286;2023-09-30T13:52:17;7.15;;;1.27;;
22737;SDS011;11536;50.860;4.286;2023-09-30T13:54:43;6.47;;;1.08;;
22737;SDS011;11536;50.860;4.286;2023-09-30T13:57:09;5.57;;;1.10;;
22737;SDS011;11536;50.860;4.286;2023-09-30T13:59:35;6.80;;;1.30;;
22737;SDS011;11536;50.860;4.286;2023-09-30T14:02:01;8.00;;;1.63;;
22737;SDS011;11536;50.860;4.286;2023-09-30T14:04:29;9.93;;;1.50;;
22737;SDS011;11536;50.860;4.286;2023-09-30T14:06:57;5.95;;;0.82;;
22737;SDS011;11536;50.860;4.286;2023-09-30T14:09:25;6.25;;;1.17;;
22737;SDS011;11536;50.860;4.286;2023-09-30T14:11:51;6.32;;;1.15;;
22737;SDS011;11536;50.860;4.286;2023-09-30T14:14:17;4.93;;;1.00;;
22737;SDS011;11536;50.860;4.286;2023-09-30T14:16:43;5.93;;;1.10;;
22737;SDS011;11536;50.860;4.286;2023-09-30T14:19:08;6.55;;;1.00;;
22737;SDS011;11536;50.860;4.286;2023-09-30T14:21:34;3.58;;;0.88;;
22737;SDS011;11536;50.860;4.286;2023-09-30T14:23:59;5.25;;;1.00;;
22737;SDS011;11536;50.860;4.286;2023-09-30T14:26:27;5.95;;;1.10;;
22737;SDS011;11536;50.860;4.286;2023-09-30T14:28:53;10.93;;;1.20;;
22737;SDS011;11536;50.860;4.286;2023-09-30T14:31:19;6.70;;;1.30;;
22737;SDS011;11536;50.860;4.286;2023-09-30T14:33:45;6.90;;;1.25;;
22737;SDS011;11536;50.860;4.286;2023-09-30T14:36:10;3.85;;;1.20;;
22737;SDS011;11536;50.860;4.286;2023-09-30T14:38:36;6.10;;;1.10;;
22737;SDS011;11536;50.860;4.286;2023-09-30T14:41:06;4.70;;;1.20;;
22737;SDS011;11536;50.860;4.286;2023-09-30T14:43:33;8.07;;;1.42;;
22737;SDS011;11536;50.860;4.286;2023-09-30T14:46:01;5.22;;;1.27;;
22737;SDS011;11536;50.860;4.286;2023-09-30T14:48:28;6.35;;;1.65;;
22737;SDS011;11536;50.860;4.286;2023-09-30T14:50:54;5.43;;;1.05;;
22737;SDS011;11536;50.860;4.286;2023-09-30T14:53:20;6.22;;;1.30;;
22737;SDS011;11536;50.860;4.286;2023-09-30T14:55:45;6.60;;;1.40;;
22737;SDS011;11536;50.860;4.286;2023-09-30T14:58:11;4.15;;;1.02;;
22737;SDS011;11536;50.860;4.286;2023-09-30T15:00:37;6.43;;;1.35;;
22737;SDS011;11536;50.860;4.286;2023-09-30T15:03:03;8.30;;;1.33;;
22737;SDS011;11536;50.860;4.286;2023-09-30T15:05:30;8.90;;;3.05;;
22737;SDS011;11536;50.860;4.286;2023-09-30T15:07:59;9.95;;;2.60;;